Airfield :
LOGIN :

Register | Disclaimer

   EN    FR    IT 

 










Legend :    VFR   Marginal VFR   IFR   Intensive IFR   Very Intensive IFR
Visi :
Ceiling :
>= 8 km
>= 3000ft
5 to 8 km
1000 to 3000 ft
1500m to 5 km
500 to 1000 ft
800 to 1500m
200 to 500 ft
< 800m
< 200 ft
Symbols :   Thunderstorms  Fog  Heavy snow  Heavy precipitations  Wind > 20 kt
SIGMETs :     Misc.  Thunderstorms  Icing  Turbulence  Mountain Waves  Volcanic Ashes







- Airport Elevation : 83 ft
- IATA code : LHR
- Download approach charts


EGLL - London Heathrow

CURRENT METAR :
  • 221320Z AUTO 10011KT 9999 NCD 24/06 Q1003

EXPIRED METARs :
  • 221250Z AUTO 09008KT 070V140 9999 NCD 24/07 Q1004 NOSIG
  • 221220Z AUTO 09007KT 9999 NCD 24/08 Q1004 NOSIG
  • 221150Z AUTO 10006KT 040V140 9999 NCD 23/09 Q1005
  • 221120Z 10006KT 060V120 9999 NSC 20/09 Q1005
  • 221050Z 11007KT CAVOK 19/08 Q1006 NOSIG

TAF TAF EGLL
Valid from the 22 at 12:00 until the 23 at 18:00 UTC


221110Z 2212/2318 09005KT CAVOK
BECMG 2213/2216 15010KT
BECMG 2221/2224 06003KT
PROB30 2223/2308 6000
No reported NOTAMs for that airfield.



MET'MAP, your aeronautical weather chart ! - Copyright ORBIFLY December 2007 - Disclaimer

ORBIFLY MET'MAP TEAM :

Programming & Development : Alexandra Zaïnal
Concept & Development : Baudouin d'Aumeries
Co-Development & Prog : Marc-Olivier Méhu
Technical & hardware support : Manuel Goepfert

Contact : metmap@orbifly.com




SOURCES & CREDITS :

   NOAA